KSNL/SNL METAR and TAF weather

Enter ICAO airport designator
Station Type Date Time Source
KSNL METAR 2020/11/28 19:35 UTC NOAA

KSNL 281935Z AUTO 03004KT 10SM CLR 08/00 A3018 RMK AO2 T00780000


Station Type Date Time Source
KSNL Decoded METAR 2020/11/28 19:35 UTC NOAA

Shawnee, Shawnee Municipal Airport, OK, United States (KSNL) 35-21-26N 096-56-34W
Nov 28, 2020 - 02:35 PM EST / 2020.11.28 1935 UTC
Wind: from the NNE (030 degrees) at 5 MPH (4 KT):0
Visibility: 10 mile(s):0
Sky conditions: clear
Temperature: 46.0 F (7.8 C)
Dew Point: 32.0 F (0.0 C)
Relative Humidity: 57%
Pressure (altimeter): 30.18 in. Hg (1022 hPa)
ob: KSNL 281935Z AUTO 03004KT 10SM CLR 08/00 A3018 RMK AO2 T00780000
cycle: 19

Station Type Date Time Source
KSNL TAF UTC NOAA

Error!

Example: see airport list